sensor_id;sensor_type;location;lat;lon;timestamp;P1;durP1;ratioP1;P2;durP2;ratioP2
10277;SDS011;5184;51.376;7.148;2022-12-11T00:04:10;66.70;;;26.73;;
10277;SDS011;5184;51.376;7.148;2022-12-11T00:06:37;69.67;;;27.23;;
10277;SDS011;5184;51.376;7.148;2022-12-11T00:09:03;71.23;;;27.27;;
10277;SDS011;5184;51.376;7.148;2022-12-11T00:11:31;73.57;;;27.53;;
10277;SDS011;5184;51.376;7.148;2022-12-11T00:13:58;72.17;;;27.83;;
10277;SDS011;5184;51.376;7.148;2022-12-11T00:16:25;74.90;;;28.30;;
10277;SDS011;5184;51.376;7.148;2022-12-11T00:18:51;59.07;;;23.93;;
10277;SDS011;5184;51.376;7.148;2022-12-11T00:21:18;55.20;;;22.77;;
10277;SDS011;5184;51.376;7.148;2022-12-11T00:23:45;48.17;;;21.20;;
10277;SDS011;5184;51.376;7.148;2022-12-11T00:26:12;56.00;;;22.90;;
10277;SDS011;5184;51.376;7.148;2022-12-11T00:28:39;54.60;;;22.27;;
10277;SDS011;5184;51.376;7.148;2022-12-11T00:31:06;48.77;;;19.67;;
10277;SDS011;5184;51.376;7.148;2022-12-11T00:33:32;55.90;;;22.10;;
10277;SDS011;5184;51.376;7.148;2022-12-11T00:35:58;56.23;;;20.80;;
10277;SDS011;5184;51.376;7.148;2022-12-11T00:38:25;53.90;;;20.90;;
10277;SDS011;5184;51.376;7.148;2022-12-11T00:40:56;54.23;;;22.90;;
10277;SDS011;5184;51.376;7.148;2022-12-11T00:43:19;57.43;;;22.90;;
10277;SDS011;5184;51.376;7.148;2022-12-11T00:45:46;64.53;;;23.13;;
10277;SDS011;5184;51.376;7.148;2022-12-11T00:48:12;63.27;;;24.10;;
10277;SDS011;5184;51.376;7.148;2022-12-11T00:50:40;61.47;;;23.23;;
10277;SDS011;5184;51.376;7.148;2022-12-11T00:53:06;61.07;;;24.30;;
10277;SDS011;5184;51.376;7.148;2022-12-11T00:55:35;63.87;;;24.80;;
10277;SDS011;5184;51.376;7.148;2022-12-11T00:58:01;64.80;;;23.43;;
10277;SDS011;5184;51.376;7.148;2022-12-11T01:00:28;73.10;;;24.80;;
10277;SDS011;5184;51.376;7.148;2022-12-11T01:02:55;65.17;;;24.73;;
10277;SDS011;5184;51.376;7.148;2022-12-11T01:05:21;65.47;;;24.00;;
10277;SDS011;5184;51.376;7.148;2022-12-11T01:07:48;68.43;;;27.13;;
10277;SDS011;5184;51.376;7.148;2022-12-11T01:10:15;71.00;;;25.83;;
10277;SDS011;5184;51.376;7.148;2022-12-11T01:12:47;74.13;;;26.10;;
10277;SDS011;5184;51.376;7.148;2022-12-11T01:15:14;78.97;;;28.10;;
10277;SDS011;5184;51.376;7.148;2022-12-11T01:17:41;80.07;;;27.03;;
10277;SDS011;5184;51.376;7.148;2022-12-11T01:20:08;75.67;;;27.60;;
10277;SDS011;5184;51.376;7.148;2022-12-11T01:22:35;79.07;;;26.73;;
10277;SDS011;5184;51.376;7.148;2022-12-11T01:25:02;89.00;;;27.90;;
10277;SDS011;5184;51.376;7.148;2022-12-11T01:27:28;80.43;;;27.63;;
10277;SDS011;5184;51.376;7.148;2022-12-11T01:29:55;87.47;;;27.83;;
10277;SDS011;5184;51.376;7.148;2022-12-11T01:32:21;94.53;;;29.33;;
10277;SDS011;5184;51.376;7.148;2022-12-11T01:34:48;88.40;;;28.63;;
10277;SDS011;5184;51.376;7.148;2022-12-11T01:37:15;102.93;;;28.90;;
10277;SDS011;5184;51.376;7.148;2022-12-11T01:39:42;95.47;;;30.47;;
10277;SDS011;5184;51.376;7.148;2022-12-11T01:42:09;107.80;;;31.17;;
10277;SDS011;5184;51.376;7.148;2022-12-11T01:47:24;91.57;;;29.97;;
10277;SDS011;5184;51.376;7.148;2022-12-11T01:49:50;100.17;;;29.73;;
10277;SDS011;5184;51.376;7.148;2022-12-11T01:52:18;100.93;;;30.93;;
10277;SDS011;5184;51.376;7.148;2022-12-11T01:54:44;87.60;;;28.90;;
10277;SDS011;5184;51.376;7.148;2022-12-11T01:57:10;87.33;;;30.43;;
10277;SDS011;5184;51.376;7.148;2022-12-11T01:59:37;94.13;;;29.70;;
10277;SDS011;5184;51.376;7.148;2022-12-11T02:02:05;90.57;;;28.80;;
10277;SDS011;5184;51.376;7.148;2022-12-11T02:04:32;76.03;;;27.53;;
10277;SDS011;5184;51.376;7.148;2022-12-11T02:06:57;85.13;;;28.60;;
10277;SDS011;5184;51.376;7.148;2022-12-11T02:09:25;83.97;;;29.87;;
10277;SDS011;5184;51.376;7.148;2022-12-11T02:12:00;81.90;;;28.60;;
10277;SDS011;5184;51.376;7.148;2022-12-11T02:14:26;79.47;;;28.70;;
10277;SDS011;5184;51.376;7.148;2022-12-11T02:16:55;86.70;;;28.47;;
10277;SDS011;5184;51.376;7.148;2022-12-11T02:22:10;72.83;;;27.93;;
10277;SDS011;5184;51.376;7.148;2022-12-11T02:27:29;73.70;;;27.37;;
10277;SDS011;5184;51.376;7.148;2022-12-11T02:30:04;81.43;;;27.83;;
10277;SDS011;5184;51.376;7.148;2022-12-11T02:32:34;72.10;;;28.00;;
10277;SDS011;5184;51.376;7.148;2022-12-11T02:35:03;76.83;;;26.73;;
10277;SDS011;5184;51.376;7.148;2022-12-11T02:37:30;78.17;;;29.37;;
10277;SDS011;5184;51.376;7.148;2022-12-11T02:39:57;73.20;;;27.33;;
10277;SDS011;5184;51.376;7.148;2022-12-11T02:42:26;71.83;;;26.93;;
10277;SDS011;5184;51.376;7.148;2022-12-11T02:44:51;74.87;;;26.97;;
10277;SDS011;5184;51.376;7.148;2022-12-11T02:47:17;68.47;;;25.93;;
10277;SDS011;5184;51.376;7.148;2022-12-11T02:49:45;71.57;;;26.60;;
10277;SDS011;5184;51.376;7.148;2022-12-11T02:52:11;71.20;;;26.60;;
10277;SDS011;5184;51.376;7.148;2022-12-11T02:54:39;69.00;;;25.10;;
10277;SDS011;5184;51.376;7.148;2022-12-11T02:57:08;69.17;;;26.37;;
10277;SDS011;5184;51.376;7.148;2022-12-11T02:59:36;70.90;;;26.20;;
10277;SDS011;5184;51.376;7.148;2022-12-11T03:02:03;73.10;;;27.73;;
10277;SDS011;5184;51.376;7.148;2022-12-11T03:04:29;77.50;;;26.83;;
10277;SDS011;5184;51.376;7.148;2022-12-11T03:06:57;71.17;;;25.63;;
10277;SDS011;5184;51.376;7.148;2022-12-11T03:09:22;69.10;;;25.50;;
10277;SDS011;5184;51.376;7.148;2022-12-11T03:11:50;78.17;;;28.67;;
10277;SDS011;5184;51.376;7.148;2022-12-11T03:14:16;74.10;;;26.43;;
10277;SDS011;5184;51.376;7.148;2022-12-11T03:16:47;77.90;;;27.83;;
10277;SDS011;5184;51.376;7.148;2022-12-11T03:19:16;82.00;;;27.70;;
10277;SDS011;5184;51.376;7.148;2022-12-11T03:21:43;84.80;;;28.73;;
10277;SDS011;5184;51.376;7.148;2022-12-11T03:24:12;86.83;;;28.90;;
10277;SDS011;5184;51.376;7.148;2022-12-11T03:26:49;88.13;;;28.93;;
10277;SDS011;5184;51.376;7.148;2022-12-11T03:29:18;89.23;;;29.27;;
10277;SDS011;5184;51.376;7.148;2022-12-11T03:32:04;95.47;;;30.90;;
10277;SDS011;5184;51.376;7.148;2022-12-11T03:34:31;86.53;;;31.23;;
10277;SDS011;5184;51.376;7.148;2022-12-11T03:36:56;86.27;;;30.13;;
10277;SDS011;5184;51.376;7.148;2022-12-11T03:39:25;90.57;;;28.90;;
10277;SDS011;5184;51.376;7.148;2022-12-11T03:41:52;83.57;;;28.77;;
10277;SDS011;5184;51.376;7.148;2022-12-11T03:44:18;85.43;;;29.93;;
10277;SDS011;5184;51.376;7.148;2022-12-11T03:46:45;85.13;;;28.27;;
10277;SDS011;5184;51.376;7.148;2022-12-11T03:49:14;93.70;;;31.60;;
10277;SDS011;5184;51.376;7.148;2022-12-11T03:51:42;85.50;;;29.47;;
10277;SDS011;5184;51.376;7.148;2022-12-11T03:54:08;83.40;;;28.30;;
10277;SDS011;5184;51.376;7.148;2022-12-11T03:56:35;82.20;;;28.40;;
10277;SDS011;5184;51.376;7.148;2022-12-11T03:59:01;83.07;;;28.80;;
10277;SDS011;5184;51.376;7.148;2022-12-11T04:01:28;76.40;;;27.47;;
10277;SDS011;5184;51.376;7.148;2022-12-11T04:03:55;72.93;;;26.20;;
10277;SDS011;5184;51.376;7.148;2022-12-11T04:06:21;64.60;;;25.37;;
10277;SDS011;5184;51.376;7.148;2022-12-11T04:08:49;60.67;;;24.57;;
10277;SDS011;5184;51.376;7.148;2022-12-11T04:11:15;61.27;;;22.67;;
10277;SDS011;5184;51.376;7.148;2022-12-11T04:13:48;61.63;;;24.87;;
10277;SDS011;5184;51.376;7.148;2022-12-11T04:16:15;62.93;;;23.63;;
10277;SDS011;5184;51.376;7.148;2022-12-11T04:18:41;61.87;;;24.93;;
10277;SDS011;5184;51.376;7.148;2022-12-11T04:21:14;57.27;;;21.80;;
10277;SDS011;5184;51.376;7.148;2022-12-11T04:24:01;61.37;;;21.87;;
10277;SDS011;5184;51.376;7.148;2022-12-11T04:26:33;50.57;;;21.33;;
10277;SDS011;5184;51.376;7.148;2022-12-11T04:29:00;56.73;;;21.63;;
10277;SDS011;5184;51.376;7.148;2022-12-11T04:31:27;52.43;;;22.37;;
10277;SDS011;5184;51.376;7.148;2022-12-11T04:33:53;57.70;;;22.97;;
10277;SDS011;5184;51.376;7.148;2022-12-11T04:36:20;57.63;;;22.83;;
10277;SDS011;5184;51.376;7.148;2022-12-11T04:38:46;53.87;;;21.47;;
10277;SDS011;5184;51.376;7.148;2022-12-11T04:41:13;51.30;;;21.37;;
10277;SDS011;5184;51.376;7.148;2022-12-11T04:43:40;52.80;;;21.10;;
10277;SDS011;5184;51.376;7.148;2022-12-11T04:46:08;49.67;;;20.53;;
10277;SDS011;5184;51.376;7.148;2022-12-11T04:48:33;43.20;;;19.23;;
10277;SDS011;5184;51.376;7.148;2022-12-11T04:50:59;46.97;;;20.77;;
10277;SDS011;5184;51.376;7.148;2022-12-11T04:53:27;47.47;;;21.33;;
10277;SDS011;5184;51.376;7.148;2022-12-11T04:55:54;52.23;;;22.07;;
10277;SDS011;5184;51.376;7.148;2022-12-11T04:58:21;46.93;;;20.67;;
10277;SDS011;5184;51.376;7.148;2022-12-11T05:00:47;46.77;;;20.87;;
10277;SDS011;5184;51.376;7.148;2022-12-11T05:03:15;45.90;;;20.63;;
10277;SDS011;5184;51.376;7.148;2022-12-11T05:05:47;41.57;;;18.63;;
10277;SDS011;5184;51.376;7.148;2022-12-11T05:08:13;45.00;;;19.57;;
10277;SDS011;5184;51.376;7.148;2022-12-11T05:10:40;44.10;;;19.20;;
10277;SDS011;5184;51.376;7.148;2022-12-11T05:13:07;42.27;;;18.73;;
10277;SDS011;5184;51.376;7.148;2022-12-11T05:15:34;39.20;;;18.87;;
10277;SDS011;5184;51.376;7.148;2022-12-11T05:18:00;40.40;;;17.23;;
10277;SDS011;5184;51.376;7.148;2022-12-11T05:20:27;42.73;;;18.50;;
10277;SDS011;5184;51.376;7.148;2022-12-11T05:22:54;35.40;;;16.43;;
10277;SDS011;5184;51.376;7.148;2022-12-11T05:25:22;35.40;;;17.57;;
10277;SDS011;5184;51.376;7.148;2022-12-11T05:27:48;37.87;;;17.40;;
10277;SDS011;5184;51.376;7.148;2022-12-11T05:30:15;36.87;;;16.70;;
10277;SDS011;5184;51.376;7.148;2022-12-11T05:32:42;37.63;;;17.27;;
10277;SDS011;5184;51.376;7.148;2022-12-11T05:35:09;35.97;;;16.73;;
10277;SDS011;5184;51.376;7.148;2022-12-11T05:37:36;42.30;;;18.83;;
10277;SDS011;5184;51.376;7.148;2022-12-11T05:40:04;34.13;;;16.47;;
10277;SDS011;5184;51.376;7.148;2022-12-11T05:42:32;40.20;;;17.43;;
10277;SDS011;5184;51.376;7.148;2022-12-11T05:44:58;37.63;;;17.23;;
10277;SDS011;5184;51.376;7.148;2022-12-11T05:47:25;36.47;;;17.20;;
10277;SDS011;5184;51.376;7.148;2022-12-11T05:49:52;35.10;;;18.03;;
10277;SDS011;5184;51.376;7.148;2022-12-11T05:52:19;36.00;;;17.27;;
10277;SDS011;5184;51.376;7.148;2022-12-11T05:54:47;38.97;;;17.70;;
10277;SDS011;5184;51.376;7.148;2022-12-11T05:57:13;32.60;;;15.53;;
10277;SDS011;5184;51.376;7.148;2022-12-11T05:59:40;34.83;;;15.70;;
10277;SDS011;5184;51.376;7.148;2022-12-11T06:02:07;36.00;;;16.67;;
10277;SDS011;5184;51.376;7.148;2022-12-11T06:04:35;38.03;;;17.20;;
10277;SDS011;5184;51.376;7.148;2022-12-11T06:07:02;36.00;;;17.17;;
10277;SDS011;5184;51.376;7.148;2022-12-11T06:09:29;38.30;;;17.07;;
10277;SDS011;5184;51.376;7.148;2022-12-11T06:11:56;31.10;;;15.17;;
10277;SDS011;5184;51.376;7.148;2022-12-11T06:14:23;38.27;;;17.13;;
10277;SDS011;5184;51.376;7.148;2022-12-11T06:16:51;32.70;;;17.00;;
10277;SDS011;5184;51.376;7.148;2022-12-11T06:19:17;37.27;;;16.97;;
10277;SDS011;5184;51.376;7.148;2022-12-11T06:21:44;38.80;;;16.23;;
10277;SDS011;5184;51.376;7.148;2022-12-11T06:24:11;30.43;;;15.23;;
10277;SDS011;5184;51.376;7.148;2022-12-11T06:26:37;38.23;;;16.20;;
10277;SDS011;5184;51.376;7.148;2022-12-11T06:29:05;33.33;;;16.43;;
10277;SDS011;5184;51.376;7.148;2022-12-11T06:31:32;34.40;;;16.93;;
10277;SDS011;5184;51.376;7.148;2022-12-11T06:33:59;36.70;;;16.63;;
10277;SDS011;5184;51.376;7.148;2022-12-11T06:36:26;34.27;;;16.17;;
10277;SDS011;5184;51.376;7.148;2022-12-11T06:38:53;34.20;;;16.43;;
10277;SDS011;5184;51.376;7.148;2022-12-11T06:41:20;36.33;;;16.50;;
10277;SDS011;5184;51.376;7.148;2022-12-11T06:43:47;38.20;;;16.80;;
10277;SDS011;5184;51.376;7.148;2022-12-11T06:46:16;41.20;;;18.70;;
10277;SDS011;5184;51.376;7.148;2022-12-11T06:48:42;36.83;;;17.30;;
10277;SDS011;5184;51.376;7.148;2022-12-11T06:51:11;40.97;;;17.13;;
10277;SDS011;5184;51.376;7.148;2022-12-11T06:53:36;40.80;;;17.23;;
10277;SDS011;5184;51.376;7.148;2022-12-11T06:56:03;41.37;;;18.67;;
10277;SDS011;5184;51.376;7.148;2022-12-11T06:58:30;38.17;;;17.63;;
10277;SDS011;5184;51.376;7.148;2022-12-11T07:00:57;37.47;;;17.97;;
10277;SDS011;5184;51.376;7.148;2022-12-11T07:03:23;37.00;;;17.77;;
10277;SDS011;5184;51.376;7.148;2022-12-11T07:05:50;39.20;;;16.93;;
10277;SDS011;5184;51.376;7.148;2022-12-11T07:08:16;41.17;;;18.50;;
10277;SDS011;5184;51.376;7.148;2022-12-11T07:10:45;37.13;;;18.43;;
10277;SDS011;5184;51.376;7.148;2022-12-11T07:13:12;42.43;;;19.13;;
10277;SDS011;5184;51.376;7.148;2022-12-11T07:15:39;37.80;;;17.57;;
10277;SDS011;5184;51.376;7.148;2022-12-11T07:18:07;39.17;;;17.30;;
10277;SDS011;5184;51.376;7.148;2022-12-11T07:20:33;36.27;;;16.37;;
10277;SDS011;5184;51.376;7.148;2022-12-11T07:23:00;43.27;;;19.60;;
10277;SDS011;5184;51.376;7.148;2022-12-11T07:25:27;39.53;;;18.63;;
10277;SDS011;5184;51.376;7.148;2022-12-11T07:27:53;42.00;;;17.70;;
10277;SDS011;5184;51.376;7.148;2022-12-11T07:30:20;44.73;;;18.33;;
10277;SDS011;5184;51.376;7.148;2022-12-11T07:32:48;40.13;;;18.87;;
10277;SDS011;5184;51.376;7.148;2022-12-11T07:35:15;38.80;;;18.87;;
10277;SDS011;5184;51.376;7.148;2022-12-11T07:37:42;42.27;;;19.30;;
10277;SDS011;5184;51.376;7.148;2022-12-11T07:40:09;38.77;;;18.00;;
10277;SDS011;5184;51.376;7.148;2022-12-11T07:42:36;39.03;;;17.93;;
10277;SDS011;5184;51.376;7.148;2022-12-11T07:45:03;36.93;;;17.87;;
10277;SDS011;5184;51.376;7.148;2022-12-11T07:47:30;39.03;;;17.83;;
10277;SDS011;5184;51.376;7.148;2022-12-11T07:49:57;40.50;;;19.70;;
10277;SDS011;5184;51.376;7.148;2022-12-11T07:52:24;40.37;;;18.83;;
10277;SDS011;5184;51.376;7.148;2022-12-11T07:54:52;38.87;;;18.37;;
10277;SDS011;5184;51.376;7.148;2022-12-11T07:57:19;38.10;;;18.40;;
10277;SDS011;5184;51.376;7.148;2022-12-11T07:59:45;39.53;;;17.90;;
10277;SDS011;5184;51.376;7.148;2022-12-11T08:02:13;36.43;;;17.17;;
10277;SDS011;5184;51.376;7.148;2022-12-11T08:04:40;38.80;;;18.40;;
10277;SDS011;5184;51.376;7.148;2022-12-11T08:07:07;35.17;;;18.07;;
10277;SDS011;5184;51.376;7.148;2022-12-11T08:09:34;36.67;;;18.47;;
10277;SDS011;5184;51.376;7.148;2022-12-11T08:12:00;38.70;;;18.77;;
10277;SDS011;5184;51.376;7.148;2022-12-11T08:14:27;41.30;;;19.13;;
10277;SDS011;5184;51.376;7.148;2022-12-11T08:16:54;38.77;;;18.63;;
10277;SDS011;5184;51.376;7.148;2022-12-11T08:19:20;40.97;;;19.07;;
10277;SDS011;5184;51.376;7.148;2022-12-11T08:21:48;39.53;;;19.63;;
10277;SDS011;5184;51.376;7.148;2022-12-11T08:24:15;39.80;;;19.93;;
10277;SDS011;5184;51.376;7.148;2022-12-11T08:26:42;40.20;;;20.03;;
10277;SDS011;5184;51.376;7.148;2022-12-11T08:29:09;41.03;;;20.40;;
10277;SDS011;5184;51.376;7.148;2022-12-11T08:31:35;42.07;;;20.57;;
10277;SDS011;5184;51.376;7.148;2022-12-11T08:34:02;36.97;;;18.77;;
10277;SDS011;5184;51.376;7.148;2022-12-11T08:36:29;40.97;;;20.60;;
10277;SDS011;5184;51.376;7.148;2022-12-11T08:38:57;37.30;;;19.87;;
10277;SDS011;5184;51.376;7.148;2022-12-11T08:41:24;40.63;;;19.43;;
10277;SDS011;5184;51.376;7.148;2022-12-11T08:43:51;37.40;;;19.83;;
10277;SDS011;5184;51.376;7.148;2022-12-11T08:46:18;43.97;;;19.37;;
10277;SDS011;5184;51.376;7.148;2022-12-11T08:48:45;43.10;;;20.63;;
10277;SDS011;5184;51.376;7.148;2022-12-11T08:51:12;37.23;;;19.03;;
10277;SDS011;5184;51.376;7.148;2022-12-11T08:53:38;38.07;;;19.23;;
10277;SDS011;5184;51.376;7.148;2022-12-11T08:56:07;36.50;;;18.43;;
10277;SDS011;5184;51.376;7.148;2022-12-11T08:58:34;37.60;;;19.27;;
10277;SDS011;5184;51.376;7.148;2022-12-11T09:01:04;40.03;;;19.40;;
10277;SDS011;5184;51.376;7.148;2022-12-11T09:03:30;39.40;;;19.47;;
10277;SDS011;5184;51.376;7.148;2022-12-11T09:05:56;39.27;;;18.60;;
10277;SDS011;5184;51.376;7.148;2022-12-11T09:08:23;38.53;;;20.43;;
10277;SDS011;5184;51.376;7.148;2022-12-11T09:10:49;40.20;;;19.43;;
10277;SDS011;5184;51.376;7.148;2022-12-11T09:13:17;36.10;;;19.40;;
10277;SDS011;5184;51.376;7.148;2022-12-11T09:15:44;39.90;;;20.13;;
10277;SDS011;5184;51.376;7.148;2022-12-11T09:18:12;42.03;;;20.00;;
10277;SDS011;5184;51.376;7.148;2022-12-11T09:20:40;41.23;;;21.60;;
10277;SDS011;5184;51.376;7.148;2022-12-11T09:23:07;40.17;;;21.83;;
10277;SDS011;5184;51.376;7.148;2022-12-11T09:25:38;44.63;;;23.37;;
10277;SDS011;5184;51.376;7.148;2022-12-11T09:28:01;43.87;;;21.93;;
10277;SDS011;5184;51.376;7.148;2022-12-11T09:30:27;40.60;;;21.60;;
10277;SDS011;5184;51.376;7.148;2022-12-11T09:32:54;41.47;;;21.00;;
10277;SDS011;5184;51.376;7.148;2022-12-11T09:35:21;38.03;;;19.97;;
10277;SDS011;5184;51.376;7.148;2022-12-11T09:37:48;38.07;;;19.20;;
10277;SDS011;5184;51.376;7.148;2022-12-11T09:40:15;39.27;;;19.93;;
10277;SDS011;5184;51.376;7.148;2022-12-11T09:42:50;36.00;;;18.77;;
10277;SDS011;5184;51.376;7.148;2022-12-11T09:45:19;36.57;;;19.87;;
10277;SDS011;5184;51.376;7.148;2022-12-11T09:47:47;40.53;;;21.47;;
10277;SDS011;5184;51.376;7.148;2022-12-11T09:50:14;39.93;;;20.73;;
10277;SDS011;5184;51.376;7.148;2022-12-11T09:52:49;38.30;;;20.70;;
10277;SDS011;5184;51.376;7.148;2022-12-11T09:55:19;38.23;;;20.90;;
10277;SDS011;5184;51.376;7.148;2022-12-11T09:57:47;37.20;;;20.13;;
10277;SDS011;5184;51.376;7.148;2022-12-11T10:00:19;37.60;;;20.20;;
10277;SDS011;5184;51.376;7.148;2022-12-11T10:04:02;39.90;;;19.50;;
10277;SDS011;5184;51.376;7.148;2022-12-11T10:05:50;37.57;;;19.13;;
10277;SDS011;5184;51.376;7.148;2022-12-11T10:08:29;38.10;;;19.47;;
10277;SDS011;5184;51.376;7.148;2022-12-11T10:11:20;37.50;;;19.70;;
10277;SDS011;5184;51.376;7.148;2022-12-11T10:13:41;40.00;;;19.73;;
10277;SDS011;5184;51.376;7.148;2022-12-11T10:18:54;33.80;;;17.80;;
10277;SDS011;5184;51.376;7.148;2022-12-11T10:21:21;35.50;;;20.20;;
10277;SDS011;5184;51.376;7.148;2022-12-11T10:23:50;35.53;;;20.20;;
10277;SDS011;5184;51.376;7.148;2022-12-11T10:26:17;36.50;;;19.93;;
10277;SDS011;5184;51.376;7.148;2022-12-11T10:28:43;36.67;;;19.77;;
10277;SDS011;5184;51.376;7.148;2022-12-11T10:33:54;38.93;;;19.57;;
10277;SDS011;5184;51.376;7.148;2022-12-11T10:36:28;37.60;;;20.57;;
10277;SDS011;5184;51.376;7.148;2022-12-11T10:38:56;33.93;;;18.97;;
10277;SDS011;5184;51.376;7.148;2022-12-11T10:41:30;35.27;;;18.90;;
10277;SDS011;5184;51.376;7.148;2022-12-11T10:44:27;32.07;;;17.07;;
10277;SDS011;5184;51.376;7.148;2022-12-11T10:49:42;36.37;;;19.57;;
10277;SDS011;5184;51.376;7.148;2022-12-11T10:52:09;27.13;;;16.17;;
10277;SDS011;5184;51.376;7.148;2022-12-11T10:54:55;32.37;;;18.10;;
10277;SDS011;5184;51.376;7.148;2022-12-11T10:57:25;31.30;;;16.63;;
10277;SDS011;5184;51.376;7.148;2022-12-11T10:59:52;29.50;;;15.90;;
10277;SDS011;5184;51.376;7.148;2022-12-11T11:02:22;30.33;;;15.63;;
10277;SDS011;5184;51.376;7.148;2022-12-11T11:04:50;31.30;;;18.60;;
10277;SDS011;5184;51.376;7.148;2022-12-11T11:07:19;28.50;;;16.23;;
10277;SDS011;5184;51.376;7.148;2022-12-11T11:09:45;28.43;;;16.87;;
10277;SDS011;5184;51.376;7.148;2022-12-11T11:12:18;30.67;;;17.20;;
10277;SDS011;5184;51.376;7.148;2022-12-11T11:14:46;30.43;;;15.97;;
10277;SDS011;5184;51.376;7.148;2022-12-11T11:17:13;28.10;;;17.37;;
10277;SDS011;5184;51.376;7.148;2022-12-11T11:19:39;32.30;;;18.13;;
10277;SDS011;5184;51.376;7.148;2022-12-11T11:22:07;32.27;;;17.43;;
10277;SDS011;5184;51.376;7.148;2022-12-11T11:24:34;29.77;;;17.03;;
10277;SDS011;5184;51.376;7.148;2022-12-11T11:27:00;33.73;;;19.57;;
10277;SDS011;5184;51.376;7.148;2022-12-11T11:29:28;30.60;;;17.67;;
10277;SDS011;5184;51.376;7.148;2022-12-11T11:31:55;34.00;;;17.57;;
10277;SDS011;5184;51.376;7.148;2022-12-11T11:34:22;34.90;;;18.23;;
10277;SDS011;5184;51.376;7.148;2022-12-11T11:36:54;34.20;;;18.73;;
10277;SDS011;5184;51.376;7.148;2022-12-11T11:39:23;30.17;;;17.73;;
10277;SDS011;5184;51.376;7.148;2022-12-11T11:41:59;32.10;;;18.03;;
10277;SDS011;5184;51.376;7.148;2022-12-11T11:44:30;30.60;;;17.77;;
10277;SDS011;5184;51.376;7.148;2022-12-11T11:46:58;32.87;;;18.20;;
10277;SDS011;5184;51.376;7.148;2022-12-11T11:49:43;35.13;;;18.50;;
10277;SDS011;5184;51.376;7.148;2022-12-11T11:52:04;32.73;;;17.40;;
10277;SDS011;5184;51.376;7.148;2022-12-11T11:54:30;31.17;;;17.53;;
10277;SDS011;5184;51.376;7.148;2022-12-11T11:57:00;33.87;;;19.23;;
10277;SDS011;5184;51.376;7.148;2022-12-11T11:59:35;33.00;;;18.90;;
10277;SDS011;5184;51.376;7.148;2022-12-11T12:02:01;33.50;;;18.70;;
10277;SDS011;5184;51.376;7.148;2022-12-11T12:04:32;35.70;;;19.80;;
10277;SDS011;5184;51.376;7.148;2022-12-11T12:07:04;37.30;;;20.77;;
10277;SDS011;5184;51.376;7.148;2022-12-11T12:09:32;35.47;;;19.37;;
10277;SDS011;5184;51.376;7.148;2022-12-11T12:12:14;36.33;;;18.17;;
10277;SDS011;5184;51.376;7.148;2022-12-11T12:14:46;33.33;;;18.07;;
10277;SDS011;5184;51.376;7.148;2022-12-11T12:17:20;37.93;;;20.00;;
10277;SDS011;5184;51.376;7.148;2022-12-11T12:20:08;31.77;;;17.77;;
10277;SDS011;5184;51.376;7.148;2022-12-11T12:22:45;36.53;;;18.53;;
10277;SDS011;5184;51.376;7.148;2022-12-11T12:25:21;34.07;;;17.73;;
10277;SDS011;5184;51.376;7.148;2022-12-11T12:27:59;34.87;;;18.17;;
10277;SDS011;5184;51.376;7.148;2022-12-11T12:31:00;33.97;;;17.60;;
10277;SDS011;5184;51.376;7.148;2022-12-11T12:36:17;31.00;;;14.47;;
10277;SDS011;5184;51.376;7.148;2022-12-11T12:38:47;31.67;;;17.23;;
10277;SDS011;5184;51.376;7.148;2022-12-11T12:41:17;30.93;;;17.77;;
10277;SDS011;5184;51.376;7.148;2022-12-11T12:44:10;30.63;;;17.53;;
10277;SDS011;5184;51.376;7.148;2022-12-11T12:46:39;28.50;;;16.47;;
10277;SDS011;5184;51.376;7.148;2022-12-11T12:49:11;28.07;;;16.30;;
10277;SDS011;5184;51.376;7.148;2022-12-11T12:51:38;31.67;;;17.53;;
10277;SDS011;5184;51.376;7.148;2022-12-11T12:54:04;30.67;;;16.53;;
10277;SDS011;5184;51.376;7.148;2022-12-11T12:56:31;29.87;;;16.73;;
10277;SDS011;5184;51.376;7.148;2022-12-11T12:58:59;26.40;;;15.43;;
10277;SDS011;5184;51.376;7.148;2022-12-11T13:01:27;28.33;;;15.80;;
10277;SDS011;5184;51.376;7.148;2022-12-11T13:03:56;26.03;;;15.00;;
10277;SDS011;5184;51.376;7.148;2022-12-11T13:06:29;29.13;;;16.17;;
10277;SDS011;5184;51.376;7.148;2022-12-11T13:11:35;27.67;;;14.60;;
10277;SDS011;5184;51.376;7.148;2022-12-11T13:14:04;27.23;;;15.20;;
10277;SDS011;5184;51.376;7.148;2022-12-11T13:16:34;27.70;;;14.77;;
10277;SDS011;5184;51.376;7.148;2022-12-11T13:19:00;27.80;;;16.00;;
10277;SDS011;5184;51.376;7.148;2022-12-11T13:21:29;26.57;;;15.43;;
10277;SDS011;5184;51.376;7.148;2022-12-11T13:26:35;25.23;;;15.17;;
10277;SDS011;5184;51.376;7.148;2022-12-11T13:29:02;27.80;;;15.63;;
10277;SDS011;5184;51.376;7.148;2022-12-11T13:31:31;26.70;;;14.93;;
10277;SDS011;5184;51.376;7.148;2022-12-11T13:33:57;26.30;;;15.17;;
10277;SDS011;5184;51.376;7.148;2022-12-11T13:36:30;27.27;;;15.93;;
10277;SDS011;5184;51.376;7.148;2022-12-11T13:38:57;25.73;;;15.17;;
10277;SDS011;5184;51.376;7.148;2022-12-11T13:41:24;26.77;;;15.37;;
10277;SDS011;5184;51.376;7.148;2022-12-11T13:43:50;26.50;;;14.90;;
10277;SDS011;5184;51.376;7.148;2022-12-11T13:46:21;26.20;;;15.23;;
10277;SDS011;5184;51.376;7.148;2022-12-11T13:48:47;25.77;;;14.73;;
10277;SDS011;5184;51.376;7.148;2022-12-11T13:51:15;28.13;;;15.97;;
10277;SDS011;5184;51.376;7.148;2022-12-11T13:53:41;25.90;;;14.73;;
10277;SDS011;5184;51.376;7.148;2022-12-11T13:56:15;27.63;;;15.60;;
10277;SDS011;5184;51.376;7.148;2022-12-11T13:58:39;30.43;;;16.23;;
10277;SDS011;5184;51.376;7.148;2022-12-11T14:01:08;28.00;;;15.57;;
10277;SDS011;5184;51.376;7.148;2022-12-11T14:03:37;27.47;;;15.20;;
10277;SDS011;5184;51.376;7.148;2022-12-11T14:06:02;26.13;;;15.63;;
10277;SDS011;5184;51.376;7.148;2022-12-11T14:08:32;26.33;;;15.17;;
10277;SDS011;5184;51.376;7.148;2022-12-11T14:10:58;29.40;;;16.27;;
10277;SDS011;5184;51.376;7.148;2022-12-11T14:13:26;27.73;;;15.17;;
10277;SDS011;5184;51.376;7.148;2022-12-11T14:15:53;29.37;;;16.40;;
10277;SDS011;5184;51.376;7.148;2022-12-11T14:18:22;32.37;;;17.30;;
10277;SDS011;5184;51.376;7.148;2022-12-11T14:20:53;26.13;;;16.60;;
10277;SDS011;5184;51.376;7.148;2022-12-11T14:23:19;28.07;;;16.20;;
10277;SDS011;5184;51.376;7.148;2022-12-11T14:28:22;29.17;;;16.43;;
10277;SDS011;5184;51.376;7.148;2022-12-11T14:30:49;25.83;;;15.63;;
10277;SDS011;5184;51.376;7.148;2022-12-11T14:33:16;27.47;;;15.10;;
10277;SDS011;5184;51.376;7.148;2022-12-11T14:35:42;29.63;;;16.23;;
10277;SDS011;5184;51.376;7.148;2022-12-11T14:38:12;30.87;;;16.20;;
10277;SDS011;5184;51.376;7.148;2022-12-11T14:40:41;29.13;;;16.23;;
10277;SDS011;5184;51.376;7.148;2022-12-11T14:43:07;30.17;;;16.37;;
10277;SDS011;5184;51.376;7.148;2022-12-11T14:45:33;29.30;;;15.93;;
10277;SDS011;5184;51.376;7.148;2022-12-11T14:47:59;26.97;;;16.13;;
10277;SDS011;5184;51.376;7.148;2022-12-11T14:50:29;27.30;;;15.90;;
10277;SDS011;5184;51.376;7.148;2022-12-11T14:52:57;29.07;;;16.37;;
10277;SDS011;5184;51.376;7.148;2022-12-11T14:55:24;32.73;;;18.17;;
10277;SDS011;5184;51.376;7.148;2022-12-11T14:57:53;29.77;;;17.43;;
10277;SDS011;5184;51.376;7.148;2022-12-11T15:00:24;27.03;;;16.50;;
10277;SDS011;5184;51.376;7.148;2022-12-11T15:02:56;33.20;;;17.37;;
10277;SDS011;5184;51.376;7.148;2022-12-11T15:05:22;27.40;;;15.80;;
10277;SDS011;5184;51.376;7.148;2022-12-11T15:07:53;31.10;;;17.43;;
10277;SDS011;5184;51.376;7.148;2022-12-11T15:10:26;27.63;;;16.57;;